Time;durP1;ratioP1;P1;durP2;ratioP2;P2;SDS_P1;SDS_P2;PMS_P1;PMS_P2;Temp;Humidity;BMP_temperature;BMP_pressure;BME280_temperature;BME280_humidity;BME280_pressure;Samples;Min_cycle;Max_cycle;Signal;HPM_P1;HPM_P2
2022/06/25 00:00:07;;;;;;;;;;;;;;;28.57;48.38;98482.91;2045664;28;19930;-56
2022/06/25 00:01:09;;;;;;;;;;;;;;;28.55;48.39;98482.38;2051150;28;19964;-56
2022/06/25 00:02:10;;;;;;;;;;;;;;;28.56;48.35;98483.22;2049615;28;19984;-55
2022/06/25 00:03:11;;;;;;;;;;;;;;;28.56;48.36;98478.56;2050931;28;20554;-55
2022/06/25 00:05:27;;;;;;;;;;;;;;;28.58;48.17;98486.47;2050448;28;19930;-55
2022/06/25 00:06:29;;;;;;;;;;;;;;;28.58;48.08;98481.00;2050556;28;19945;-57
2022/06/25 00:07:30;;;;;;;;;;;;;;;28.60;48.22;98482.38;2053840;28;19934;-55
2022/06/25 00:08:31;;;;;;;;;;;;;;;28.63;48.20;98483.72;2052759;28;19977;-54
2022/06/25 00:09:32;;;;;;;;;;;;;;;28.62;48.20;98480.19;2055799;28;19926;-54
2022/06/25 00:10:34;;;;;;;;;;;;;;;28.62;48.28;98476.66;2053450;28;19927;-56
2022/06/25 00:12:53;;;;;;;;;;;;;;;28.61;48.35;98481.28;2047800;28;19934;-55
2022/06/25 00:13:55;;;;;;;;;;;;;;;28.60;48.32;98473.38;2051648;28;19930;-53
2022/06/25 00:14:56;;;;;;;;;;;;;;;28.59;48.31;98469.81;2050729;28;19960;-54
2022/06/25 00:15:59;;;;;;;;;;;;;;;28.63;48.33;98476.38;2055049;28;20056;-54
2022/06/25 00:16:59;;;;;;;;;;;;;;;28.62;48.19;98474.72;2044767;28;19926;-56
2022/06/25 00:18:01;;;;;;;;;;;;;;;28.63;48.25;98481.00;2054529;28;20589;-53
2022/06/25 00:19:03;;;;;;;;;;;;;;;28.62;48.47;98472.00;2053491;28;19933;-56
2022/06/25 00:20:05;;;;;;;;;;;;;;;28.64;48.29;98477.16;2051511;28;19926;-52
2022/06/25 00:21:05;;;;;;;;;;;;;;;28.63;48.25;98470.91;2051229;28;19929;-56
2022/06/25 00:22:07;;;;;;;;;;;;;;;28.62;48.15;98471.19;2054514;28;19929;-52
2022/06/25 00:23:07;;;;;;;;;;;;;;;28.57;48.46;98466.53;2052464;28;19965;-56
2022/06/25 00:24:09;;;;;;;;;;;;;;;28.56;48.43;98462.19;2054642;28;20398;-55
2022/06/25 00:25:10;;;;;;;;;;;;;;;28.55;48.61;98465.19;2054544;28;19933;-52
2022/06/25 00:26:11;;;;;;;;;;;;;;;28.55;48.52;98460.53;2051492;28;19936;-54
2022/06/25 00:27:12;;;;;;;;;;;;;;;28.55;48.39;98460.53;2053947;28;20030;-56
2022/06/25 00:28:13;;;;;;;;;;;;;;;28.57;48.29;98450.16;2053323;28;19934;-52
2022/06/25 00:29:14;;;;;;;;;;;;;;;28.57;48.44;98455.63;2053643;28;19934;-54
2022/06/25 00:30:16;;;;;;;;;;;;;;;28.59;48.36;98452.66;2053449;28;19926;-52
2022/06/25 00:31:18;;;;;;;;;;;;;;;28.60;48.34;98451.53;2053763;28;19937;-53
2022/06/25 00:32:19;;;;;;;;;;;;;;;28.59;48.20;98458.91;2050294;28;20045;-54
2022/06/25 00:33:20;;;;;;;;;;;;;;;28.57;48.61;98452.91;2045612;28;20004;-51
2022/06/25 00:34:21;;;;;;;;;;;;;;;28.62;48.27;98457.56;2052059;28;19926;-55
2022/06/25 00:35:22;;;;;;;;;;;;;;;28.60;48.35;98452.34;2053810;28;19934;-53
2022/06/25 00:36:24;;;;;;;;;;;;;;;28.62;48.35;98454.81;2053369;28;19957;-53
2022/06/25 00:37:24;;;;;;;;;;;;;;;28.61;48.45;98454.00;2051277;28;19941;-55
2022/06/25 00:38:26;;;;;;;;;;;;;;;28.60;48.39;98452.34;2044869;28;20020;-52
2022/06/25 00:39:26;;;;;;;;;;;;;;;28.59;48.28;98449.91;2045287;28;19934;-52
2022/06/25 00:40:28;;;;;;;;;;;;;;;28.57;48.53;98457.53;2051756;28;20548;-52
2022/06/25 00:41:29;;;;;;;;;;;;;;;28.57;48.45;98452.91;2052181;28;19926;-53
2022/06/25 00:42:31;;;;;;;;;;;;;;;28.55;48.25;98455.06;2045347;28;19934;-53
2022/06/25 00:43:31;;;;;;;;;;;;;;;28.56;48.43;98456.72;2048472;28;19930;-52
2022/06/25 00:44:33;;;;;;;;;;;;;;;28.57;48.24;98469.28;2055412;28;20617;-51
2022/06/25 00:45:33;;;;;;;;;;;;;;;28.57;48.45;98465.72;2050729;28;19937;-52
2022/06/25 00:46:37;;;;;;;;;;;;;;;28.56;48.43;98464.91;2049686;28;21222;-52
2022/06/25 00:47:38;;;;;;;;;;;;;;;28.57;48.65;98463.81;2052753;28;20598;-52
2022/06/25 00:48:39;;;;;;;;;;;;;;;28.56;48.36;98467.66;2052830;28;19942;-53
2022/06/25 00:49:41;;;;;;;;;;;;;;;28.55;48.64;98468.72;2054405;28;20408;-53
2022/06/25 00:50:42;;;;;;;;;;;;;;;28.55;48.55;98466.00;2054848;28;19962;-51
2022/06/25 00:51:44;;;;;;;;;;;;;;;28.55;48.27;98459.72;2055867;28;19937;-52
2022/06/25 00:52:48;;;;;;;;;;;;;;;28.56;48.74;98459.47;2055593;28;19996;-54
2022/06/25 00:53:49;;;;;;;;;;;;;;;28.55;48.46;98455.06;2056278;28;19930;-53
2022/06/25 00:54:53;;;;;;;;;;;;;;;28.56;48.40;98454.00;2056795;28;19926;-55
2022/06/25 00:55:54;;;;;;;;;;;;;;;28.56;48.29;98458.66;2053125;28;19980;-54
2022/06/25 00:56:57;;;;;;;;;;;;;;;28.56;48.39;98456.72;2052127;28;19941;-53
2022/06/25 00:57:59;;;;;;;;;;;;;;;28.55;48.63;98457.00;2055850;28;19934;-51
2022/06/25 00:59:03;;;;;;;;;;;;;;;28.54;48.70;98456.19;2050731;28;19930;-52
2022/06/25 01:00:05;;;;;;;;;;;;;;;28.54;48.48;98458.09;2052169;28;19930;-53
2022/06/25 01:01:08;;;;;;;;;;;;;;;28.52;48.79;98453.72;2050127;28;19935;-55
2022/06/25 01:02:10;;;;;;;;;;;;;;;28.52;48.58;98455.63;2050118;28;19979;-53
2022/06/25 01:03:12;;;;;;;;;;;;;;;28.52;48.35;98450.97;2053402;28;19969;-53
2022/06/25 01:04:12;;;;;;;;;;;;;;;28.55;48.64;98462.44;2050188;28;19949;-50
2022/06/25 01:05:16;;;;;;;;;;;;;;;28.52;48.72;98463.81;2049992;28;20017;-53
2022/06/25 01:06:17;;;;;;;;;;;;;;;28.53;48.44;98465.47;2050876;28;19941;-53
2022/06/25 01:07:19;;;;;;;;;;;;;;;28.54;48.74;98469.81;2050810;28;19936;-54
2022/06/25 01:08:20;;;;;;;;;;;;;;;28.56;48.38;98472.28;2052706;28;19934;-55
2022/06/25 01:09:22;;;;;;;;;;;;;;;28.54;48.47;98469.81;2053558;28;19957;-52
2022/06/25 01:10:22;;;;;;;;;;;;;;;28.52;48.34;98470.09;2054956;28;19930;-51
2022/06/25 01:11:24;;;;;;;;;;;;;;;28.55;48.28;98467.91;2051035;28;19950;-55
2022/06/25 01:12:25;;;;;;;;;;;;;;;28.55;48.38;98455.06;2053718;28;20489;-55
2022/06/25 01:13:26;;;;;;;;;;;;;;;28.54;48.49;98464.38;2052412;28;19936;-51
2022/06/25 01:14:27;;;;;;;;;;;;;;;28.52;48.57;98461.09;2056054;28;19930;-51
2022/06/25 01:15:28;;;;;;;;;;;;;;;28.53;48.34;98460.00;2050736;28;19933;-55
2022/06/25 01:16:29;;;;;;;;;;;;;;;28.51;48.37;98462.19;2051349;28;19938;-55
2022/06/25 01:17:32;;;;;;;;;;;;;;;28.52;48.68;98458.34;2050769;28;19940;-56
2022/06/25 01:18:32;;;;;;;;;;;;;;;28.50;48.41;98455.91;2051466;28;20348;-56
2022/06/25 01:19:34;;;;;;;;;;;;;;;28.52;48.86;98461.09;2052276;28;19936;-56
2022/06/25 01:20:35;;;;;;;;;;;;;;;28.52;48.54;98455.63;2053012;28;19930;-52
2022/06/25 01:21:37;;;;;;;;;;;;;;;28.54;48.49;98456.19;2052910;28;20397;-54
2022/06/25 01:22:39;;;;;;;;;;;;;;;28.53;48.56;98454.56;2054064;28;19925;-54
2022/06/25 01:23:40;;;;;;;;;;;;;;;28.54;48.61;98458.09;2050892;28;19962;-54
2022/06/25 01:24:41;;;;;;;;;;;;;;;28.52;48.32;98458.34;2053399;28;20335;-56
2022/06/25 01:25:43;;;;;;;;;;;;;;;28.51;48.52;98464.91;2054389;28;20092;-55
2022/06/25 01:26:43;;;;;;;;;;;;;;;28.51;48.49;98467.66;2052125;28;19934;-55
2022/06/25 01:27:45;;;;;;;;;;;;;;;28.51;48.47;98470.38;2053401;28;19997;-55
2022/06/25 01:28:46;;;;;;;;;;;;;;;28.52;48.61;98472.81;2051739;28;19937;-57
2022/06/25 01:29:47;;;;;;;;;;;;;;;28.52;48.53;98472.00;2050058;28;20425;-53
2022/06/25 01:30:48;;;;;;;;;;;;;;;28.52;48.56;98470.09;2051300;28;19930;-54
2022/06/25 01:31:49;;;;;;;;;;;;;;;28.51;48.63;98470.38;2054208;28;19957;-56
2022/06/25 01:32:51;;;;;;;;;;;;;;;28.51;48.26;98473.09;2054959;28;20494;-53
2022/06/25 01:33:53;;;;;;;;;;;;;;;28.51;48.39;98479.38;2052232;28;20462;-54
2022/06/25 01:34:53;;;;;;;;;;;;;;;28.51;48.47;98475.81;2055043;28;19937;-54
2022/06/25 01:35:55;;;;;;;;;;;;;;;28.50;48.60;98482.34;2052638;28;19934;-54
2022/06/25 01:36:55;;;;;;;;;;;;;;;28.49;48.53;98478.81;2053288;28;20429;-55
2022/06/25 01:37:58;;;;;;;;;;;;;;;28.51;48.34;98473.09;2055003;28;19926;-55
2022/06/25 01:38:59;;;;;;;;;;;;;;;28.49;48.42;98478.00;2050140;28;19936;-55
2022/06/25 01:40:00;;;;;;;;;;;;;;;28.50;48.66;98482.34;2051688;28;20417;-55
2022/06/25 01:41:01;;;;;;;;;;;;;;;28.50;48.42;98482.34;2049627;28;19937;-54
2022/06/25 01:42:03;;;;;;;;;;;;;;;28.50;48.50;98474.16;2052713;28;19930;-56
2022/06/25 01:43:04;;;;;;;;;;;;;;;28.49;48.42;98473.34;2051639;28;19937;-57
2022/06/25 01:44:05;;;;;;;;;;;;;;;28.49;48.27;98469.81;2051704;28;19926;-54
2022/06/25 01:45:06;;;;;;;;;;;;;;;28.49;48.56;98473.34;2052722;28;20428;-55
2022/06/25 01:46:08;;;;;;;;;;;;;;;28.49;48.29;98470.63;2054293;28;19945;-53
2022/06/25 01:47:09;;;;;;;;;;;;;;;28.49;48.57;98472.53;2053418;28;19930;-53
2022/06/25 01:48:11;;;;;;;;;;;;;;;28.48;48.40;98470.91;2051698;28;20432;-56
2022/06/25 01:49:11;;;;;;;;;;;;;;;28.48;48.45;98465.47;2054276;28;20025;-52
2022/06/25 01:50:13;;;;;;;;;;;;;;;28.48;48.30;98465.47;2055098;28;20268;-51
2022/06/25 01:51:16;;;;;;;;;;;;;;;28.47;48.46;98459.19;2054582;28;19926;-53
2022/06/25 01:52:16;;;;;;;;;;;;;;;28.49;48.41;98464.38;2056509;28;19937;-55
2022/06/25 01:53:19;;;;;;;;;;;;;;;28.49;48.62;98469.81;2050768;28;20540;-55
2022/06/25 01:54:20;;;;;;;;;;;;;;;28.47;48.44;98464.66;2057173;28;19926;-55
2022/06/25 01:55:21;;;;;;;;;;;;;;;28.49;48.38;98472.53;2052008;28;19930;-58
2022/06/25 01:56:22;;;;;;;;;;;;;;;28.47;48.69;98470.09;2055392;28;20260;-53
2022/06/25 01:57:24;;;;;;;;;;;;;;;28.47;48.50;98480.19;2049630;28;19937;-56
2022/06/25 01:58:24;;;;;;;;;;;;;;;28.47;48.59;98477.44;2053183;28;20403;-54
2022/06/25 01:59:26;;;;;;;;;;;;;;;28.48;48.55;98476.38;2051806;28;19973;-53
2022/06/25 02:00:28;;;;;;;;;;;;;;;28.47;48.64;98472.84;2052803;28;19956;-55
2022/06/25 02:01:29;;;;;;;;;;;;;;;28.45;48.52;98480.47;2050384;28;21460;-55
2022/06/25 02:02:30;;;;;;;;;;;;;;;28.46;48.61;98479.38;2054641;28;19933;-56
2022/06/25 02:03:31;;;;;;;;;;;;;;;28.45;48.53;98477.75;2054263;28;19926;-52
2022/06/25 02:04:32;;;;;;;;;;;;;;;28.46;48.42;98478.56;2054603;28;19937;-53
2022/06/25 02:07:04;;;;;;;;;;;;;;;28.44;48.59;98470.63;2044563;28;20600;-52
2022/06/25 02:08:06;;;;;;;;;;;;;;;28.45;48.44;98469.56;2046379;28;19938;-54
2022/06/25 02:09:09;;;;;;;;;;;;;;;28.45;48.60;98482.38;2042026;28;19931;-54
2022/06/25 02:10:10;;;;;;;;;;;;;;;28.47;48.53;98477.44;2054951;28;19941;-55
2022/06/25 02:11:12;;;;;;;;;;;;;;;28.46;48.62;98473.91;2055225;28;19929;-56
2022/06/25 02:12:12;;;;;;;;;;;;;;;28.44;48.56;98472.53;2054367;28;19969;-55
2022/06/25 02:13:14;;;;;;;;;;;;;;;28.44;48.41;98473.34;2055258;28;19926;-53
2022/06/25 02:14:15;;;;;;;;;;;;;;;28.45;48.53;98466.81;2052207;28;19933;-56
2022/06/25 02:15:16;;;;;;;;;;;;;;;28.46;48.61;98460.25;2054466;28;19953;-60
2022/06/25 02:16:20;;;;;;;;;;;;;;;28.44;48.57;98458.91;2056934;28;19930;-54
2022/06/25 02:17:20;;;;;;;;;;;;;;;28.44;48.44;98462.44;2055361;28;19929;-53
2022/06/25 02:18:23;;;;;;;;;;;;;;;28.44;48.67;98456.97;2056053;28;19926;-54
2022/06/25 02:19:23;;;;;;;;;;;;;;;28.44;48.56;98461.63;2046232;28;19936;-55
2022/06/25 02:20:25;;;;;;;;;;;;;;;28.43;48.47;98460.81;2051424;28;19925;-56
2022/06/25 02:21:27;;;;;;;;;;;;;;;28.44;48.45;98453.44;2050169;28;19941;-56
2022/06/25 02:22:28;;;;;;;;;;;;;;;28.44;48.48;98458.91;2055769;28;20343;-55
2022/06/25 02:23:29;;;;;;;;;;;;;;;28.43;48.63;98466.28;2051932;28;19934;-56
2022/06/25 02:24:32;;;;;;;;;;;;;;;28.43;48.36;98460.81;2053795;28;19929;-52
2022/06/25 02:25:33;;;;;;;;;;;;;;;28.44;48.37;98456.16;2053260;28;20600;-57
2022/06/25 02:26:34;;;;;;;;;;;;;;;28.43;48.35;98462.72;2049719;28;19950;-52
2022/06/25 02:27:35;;;;;;;;;;;;;;;28.42;48.51;98458.34;2052927;28;19926;-56
2022/06/25 02:28:36;;;;;;;;;;;;;;;28.43;48.86;98447.19;2054335;28;19934;-54
2022/06/25 02:29:37;;;;;;;;;;;;;;;28.44;48.52;98453.44;2052828;28;20557;-56
2022/06/25 02:30:39;;;;;;;;;;;;;;;28.44;48.37;98453.44;2054721;28;19936;-52
2022/06/25 02:31:39;;;;;;;;;;;;;;;28.44;48.37;98443.34;2054709;28;19930;-54
2022/06/25 02:32:41;;;;;;;;;;;;;;;28.44;48.43;98448.00;2052533;28;19926;-56
2022/06/25 02:33:42;;;;;;;;;;;;;;;28.43;48.53;98451.81;2052620;28;19984;-53
2022/06/25 02:34:44;;;;;;;;;;;;;;;28.43;48.33;98457.28;2053840;28;19933;-55
2022/06/25 02:35:44;;;;;;;;;;;;;;;28.42;48.43;98450.16;2052392;28;20640;-53
2022/06/25 02:36:46;;;;;;;;;;;;;;;28.44;48.74;98464.34;2054369;28;19934;-55
2022/06/25 02:37:46;;;;;;;;;;;;;;;28.43;48.68;98457.28;2055561;28;19926;-54
2022/06/25 02:38:48;;;;;;;;;;;;;;;28.42;48.72;98461.91;2055424;28;19976;-54
2022/06/25 02:39:50;;;;;;;;;;;;;;;28.42;48.71;98461.06;2054277;28;19941;-52
2022/06/25 02:40:52;;;;;;;;;;;;;;;28.42;48.54;98450.16;2053408;28;19930;-55
2022/06/25 02:41:52;;;;;;;;;;;;;;;28.42;48.48;98459.19;2055181;28;20001;-51
2022/06/25 02:42:54;;;;;;;;;;;;;;;28.42;48.70;98456.47;2053014;28;20634;-56
2022/06/25 02:43:54;;;;;;;;;;;;;;;28.42;48.64;98453.72;2053744;28;20484;-53
2022/06/25 02:44:56;;;;;;;;;;;;;;;28.41;48.71;98453.97;2049395;28;19954;-52
2022/06/25 02:45:57;;;;;;;;;;;;;;;28.41;48.66;98454.78;2051241;28;19934;-54
2022/06/25 02:46:58;;;;;;;;;;;;;;;28.41;48.62;98454.78;2050209;28;19942;-52
2022/06/25 02:47:59;;;;;;;;;;;;;;;28.41;48.63;98459.41;2051322;28;19933;-52
2022/06/25 02:49:01;;;;;;;;;;;;;;;28.40;48.52;98453.16;2053297;28;19926;-51
2022/06/25 02:50:02;;;;;;;;;;;;;;;28.40;48.79;98446.88;2052147;28;20549;-50
2022/06/25 02:51:04;;;;;;;;;;;;;;;28.41;48.68;98445.78;2052869;28;19934;-51
2022/06/25 02:52:06;;;;;;;;;;;;;;;28.41;48.76;98448.50;2052717;28;19934;-50
2022/06/25 02:53:08;;;;;;;;;;;;;;;28.41;48.85;98440.31;2054022;28;19936;-55
2022/06/25 02:54:08;;;;;;;;;;;;;;;28.40;48.48;98446.88;2055627;28;19934;-55
2022/06/25 02:55:11;;;;;;;;;;;;;;;28.39;48.71;98446.06;2052264;28;20262;-55
2022/06/25 02:58:55;;;;;;;;;;;;;;;28.41;48.50;98453.97;2054062;28;20036;-55
2022/06/25 02:59:57;;;;;;;;;;;;;;;28.41;48.66;98451.22;2048807;28;19934;-54
2022/06/25 03:00:58;;;;;;;;;;;;;;;28.40;48.83;98457.78;2050259;28;19934;-54
2022/06/25 03:01:59;;;;;;;;;;;;;;;28.40;48.79;98455.88;2052458;28;20429;-50
2022/06/25 03:03:00;;;;;;;;;;;;;;;28.40;48.59;98447.69;2054650;28;19933;-56
2022/06/25 03:04:01;;;;;;;;;;;;;;;28.41;48.64;98456.69;2053055;28;20307;-55
2022/06/25 03:05:03;;;;;;;;;;;;;;;28.39;48.69;98456.13;2053382;28;19931;-53
2022/06/25 03:06:04;;;;;;;;;;;;;;;28.39;48.82;98461.59;2054302;28;20446;-53
2022/06/25 03:07:05;;;;;;;;;;;;;;;28.39;48.99;98464.31;2049267;28;19926;-55
2022/06/25 03:08:07;;;;;;;;;;;;;;;28.39;48.91;98462.44;2054808;28;20281;-54
2022/06/25 03:09:07;;;;;;;;;;;;;;;28.39;48.82;98464.31;2051841;28;19941;-53
2022/06/25 03:10:10;;;;;;;;;;;;;;;28.39;48.84;98469.78;2055213;28;20031;-54
2022/06/25 03:11:11;;;;;;;;;;;;;;;28.39;48.95;98472.50;2055585;28;19930;-52
2022/06/25 03:12:13;;;;;;;;;;;;;;;28.40;49.03;98468.69;2054657;28;20243;-53
2022/06/25 03:13:14;;;;;;;;;;;;;;;28.39;48.64;98461.59;2052702;28;20513;-51
2022/06/25 03:14:15;;;;;;;;;;;;;;;28.39;49.03;98469.78;2056110;28;19926;-55
2022/06/25 03:15:16;;;;;;;;;;;;;;;28.39;49.00;98480.69;2053183;28;20272;-55
2022/06/25 03:16:17;;;;;;;;;;;;;;;28.39;48.98;98470.63;2053926;28;19926;-56
2022/06/25 03:17:18;;;;;;;;;;;;;;;28.39;48.78;98477.97;2054282;28;19934;-55
2022/06/25 03:18:19;;;;;;;;;;;;;;;28.39;49.08;98480.69;2053024;28;19936;-56
2022/06/25 03:19:20;;;;;;;;;;;;;;;28.38;48.87;98484.50;2056694;28;19925;-54
2022/06/25 03:20:22;;;;;;;;;;;;;;;28.38;48.74;98485.31;2051189;28;21581;-57
2022/06/25 03:21:22;;;;;;;;;;;;;;;28.39;48.88;98483.41;2052492;28;20295;-56
2022/06/25 03:22:24;;;;;;;;;;;;;;;28.37;48.98;98477.44;2054450;28;19926;-56
2022/06/25 03:23:24;;;;;;;;;;;;;;;28.37;48.84;98491.06;2052367;28;19930;-54
2022/06/25 03:24:26;;;;;;;;;;;;;;;28.37;48.82;98496.53;2054521;28;19925;-54
2022/06/25 03:25:28;;;;;;;;;;;;;;;28.36;48.92;98505.78;2052332;28;19926;-54
2022/06/25 03:26:29;;;;;;;;;;;;;;;28.36;48.86;98506.63;2058311;28;19977;-54
2022/06/25 03:27:30;;;;;;;;;;;;;;;28.37;48.89;98512.88;2052927;28;21112;-51
2022/06/25 03:28:32;;;;;;;;;;;;;;;28.37;48.97;98512.88;2057351;28;19930;-52
2022/06/25 03:29:32;;;;;;;;;;;;;;;28.36;48.94;98522.16;2058348;28;19933;-53
2022/06/25 03:30:34;;;;;;;;;;;;;;;28.37;48.91;98523.81;2052659;28;19930;-54
2022/06/25 03:31:35;;;;;;;;;;;;;;;28.36;48.76;98527.59;2051429;28;19934;-55
2022/06/25 03:32:36;;;;;;;;;;;;;;;28.36;48.91;98522.16;2051460;28;19934;-56
2022/06/25 03:33:38;;;;;;;;;;;;;;;28.35;48.83;98518.59;2050345;28;19930;-51
2022/06/25 03:34:39;;;;;;;;;;;;;;;28.36;48.88;98519.41;2051475;28;19926;-55
2022/06/25 03:35:40;;;;;;;;;;;;;;;28.35;48.87;98512.34;2050245;28;19931;-51
2022/06/25 03:36:42;;;;;;;;;;;;;;;28.35;49.05;98515.88;2055396;28;19926;-55
2022/06/25 03:37:42;;;;;;;;;;;;;;;28.35;49.04;98521.34;2054659;28;19926;-51
2022/06/25 03:38:44;;;;;;;;;;;;;;;28.35;48.87;98529.50;2051897;28;19965;-51
2022/06/25 03:39:44;;;;;;;;;;;;;;;28.36;48.88;98522.16;2055034;28;19949;-54
2022/06/25 03:40:47;;;;;;;;;;;;;;;28.37;48.83;98526.53;2055557;28;19936;-51
2022/06/25 03:41:48;;;;;;;;;;;;;;;28.35;49.21;98534.97;2056814;28;19961;-53
2022/06/25 03:42:49;;;;;;;;;;;;;;;28.34;48.83;98540.72;2053977;28;19965;-51
2022/06/25 03:43:50;;;;;;;;;;;;;;;28.33;49.33;98542.59;2052436;28;20075;-54
2022/06/25 03:44:52;;;;;;;;;;;;;;;28.35;48.99;98545.88;2050334;28;20009;-54
2022/06/25 03:45:52;;;;;;;;;;;;;;;28.36;49.08;98543.97;2053245;28;20009;-55
2022/06/25 03:46:54;;;;;;;;;;;;;;;28.35;49.10;98548.59;2053887;28;19934;-55
2022/06/25 03:47:54;;;;;;;;;;;;;;;28.35;48.92;98545.06;2052769;28;19934;-51
2022/06/25 03:48:56;;;;;;;;;;;;;;;28.34;49.02;98546.16;2054104;28;19930;-52
2022/06/25 03:49:56;;;;;;;;;;;;;;;28.35;49.03;98545.06;2053384;28;20113;-55
2022/06/25 03:50:58;;;;;;;;;;;;;;;28.34;48.92;98551.63;2053516;28;20024;-55
2022/06/25 03:51:59;;;;;;;;;;;;;;;28.33;49.18;98552.69;2052652;28;19930;-55
2022/06/25 03:53:00;;;;;;;;;;;;;;;28.34;49.05;98554.34;2049154;28;20581;-52
2022/06/25 03:54:01;;;;;;;;;;;;;;;28.33;49.08;98566.34;2050329;28;19934;-53
2022/06/25 03:55:03;;;;;;;;;;;;;;;28.32;49.22;98553.78;2053227;28;19936;-51
2022/06/25 03:56:05;;;;;;;;;;;;;;;28.32;49.20;98559.25;2053084;28;19926;-52
2022/06/25 03:57:06;;;;;;;;;;;;;;;28.32;49.19;98561.97;2053128;28;19946;-54
2022/06/25 03:58:07;;;;;;;;;;;;;;;28.32;49.18;98564.69;2049957;28;20828;-52
2022/06/25 03:59:09;;;;;;;;;;;;;;;28.32;49.35;98559.25;2045450;28;20053;-54
2022/06/25 04:00:10;;;;;;;;;;;;;;;28.33;49.04;98560.88;2051675;28;19941;-56
2022/06/25 04:01:12;;;;;;;;;;;;;;;28.31;49.16;98558.44;2049748;28;20027;-51
2022/06/25 04:02:13;;;;;;;;;;;;;;;28.32;49.20;98551.88;2055535;28;19933;-54
2022/06/25 04:03:14;;;;;;;;;;;;;;;28.34;49.25;98551.63;2052564;28;19932;-56
2022/06/25 04:04:15;;;;;;;;;;;;;;;28.31;49.15;98547.53;2051425;28;19969;-52
2022/06/25 04:05:17;;;;;;;;;;;;;;;28.28;49.26;98550.78;2057303;28;19933;-54
2022/06/25 04:06:18;;;;;;;;;;;;;;;28.27;49.07;98544.50;2055884;28;19937;-54
2022/06/25 04:07:19;;;;;;;;;;;;;;;28.28;49.45;98537.97;2054672;28;19930;-54
2022/06/25 04:08:20;;;;;;;;;;;;;;;28.28;49.39;98534.44;2054400;28;19926;-53
2022/06/25 04:09:21;;;;;;;;;;;;;;;28.28;49.18;98529.78;2053219;28;19963;-53
2022/06/25 04:10:22;;;;;;;;;;;;;;;28.28;49.20;98532.53;2050651;28;20596;-55
2022/06/25 04:11:25;;;;;;;;;;;;;;;28.29;49.36;98536.88;2053500;28;19961;-55
2022/06/25 04:12:26;;;;;;;;;;;;;;;28.28;49.13;98537.97;2049313;28;19975;-56
2022/06/25 04:13:27;;;;;;;;;;;;;;;28.28;48.89;98546.16;2049093;28;20034;-51
2022/06/25 04:14:28;;;;;;;;;;;;;;;28.29;49.36;98542.31;2053530;28;19942;-53
2022/06/25 04:15:30;;;;;;;;;;;;;;;28.31;49.33;98544.78;2054793;28;19946;-54
2022/06/25 04:16:30;;;;;;;;;;;;;;;28.32;49.27;98545.63;2052401;28;19930;-50
2022/06/25 04:17:32;;;;;;;;;;;;;;;28.33;49.30;98549.97;2054081;28;19976;-54
2022/06/25 04:18:32;;;;;;;;;;;;;;;28.32;49.26;98551.88;2055025;28;20578;-54
2022/06/25 04:19:39;;;;;;;;;;;;;;;28.32;48.92;98548.34;2058899;28;19976;-52
2022/06/25 04:20:40;;;;;;;;;;;;;;;28.32;49.29;98553.78;2054485;28;19930;-54
2022/06/25 04:21:47;;;;;;;;;;;;;;;28.32;49.04;98548.34;2056464;28;19964;-54
2022/06/25 04:22:47;;;;;;;;;;;;;;;28.28;49.06;98551.59;2053275;28;19926;-55
2022/06/25 04:23:49;;;;;;;;;;;;;;;28.29;49.38;98555.16;2055061;28;19926;-53
2022/06/25 04:24:50;;;;;;;;;;;;;;;28.28;49.39;98562.50;2049607;28;19934;-55
2022/06/25 04:25:52;;;;;;;;;;;;;;;28.27;49.29;98563.59;2054486;28;20372;-55
2022/06/25 04:26:54;;;;;;;;;;;;;;;28.26;49.07;98561.97;2050935;28;19937;-54
2022/06/25 04:29:14;;;;;;;;;;;;;;;28.27;49.15;98568.22;2050481;28;19930;-53
2022/06/25 04:30:15;;;;;;;;;;;;;;;28.27;49.23;98574.50;2052830;28;19972;-55
2022/06/25 04:31:16;;;;;;;;;;;;;;;28.27;49.13;98570.94;2053619;28;20247;-50
2022/06/25 04:32:17;;;;;;;;;;;;;;;28.27;48.99;98574.50;2052730;28;20338;-53
2022/06/25 04:33:18;;;;;;;;;;;;;;;28.27;49.17;98565.50;2052445;28;19973;-54
2022/06/25 04:34:20;;;;;;;;;;;;;;;28.27;49.08;98571.78;2054683;28;20439;-53
2022/06/25 04:35:21;;;;;;;;;;;;;;;28.28;49.42;98573.44;2054348;28;20052;-53
2022/06/25 04:36:22;;;;;;;;;;;;;;;28.25;49.05;98568.50;2052758;28;20064;-53
2022/06/25 04:37:23;;;;;;;;;;;;;;;28.24;49.39;98568.78;2053859;28;19930;-54
2022/06/25 04:38:24;;;;;;;;;;;;;;;28.25;49.14;98573.13;2054153;28;19933;-56
2022/06/25 04:39:25;;;;;;;;;;;;;;;28.24;49.28;98575.03;2050588;28;19934;-54
2022/06/25 04:40:29;;;;;;;;;;;;;;;28.25;49.30;98571.25;2053311;28;21595;-54
2022/06/25 04:41:29;;;;;;;;;;;;;;;28.25;49.13;98576.69;2053102;28;19937;-56
2022/06/25 04:42:32;;;;;;;;;;;;;;;28.26;49.46;98577.50;2053044;28;19926;-54
2022/06/25 04:43:33;;;;;;;;;;;;;;;28.26;49.12;98581.06;2054472;28;19933;-54
2022/06/25 04:44:34;;;;;;;;;;;;;;;28.25;49.41;98587.59;2055374;28;19965;-54
2022/06/25 04:45:35;;;;;;;;;;;;;;;28.26;49.09;98586.50;2053492;28;19937;-56
2022/06/25 04:46:37;;;;;;;;;;;;;;;28.25;49.30;98595.78;2054816;28;19934;-53
2022/06/25 04:47:38;;;;;;;;;;;;;;;28.26;49.30;98589.22;2053234;28;19965;-55
2022/06/25 04:48:40;;;;;;;;;;;;;;;28.25;49.16;98587.59;2053108;28;19945;-54
2022/06/25 04:49:40;;;;;;;;;;;;;;;28.24;49.42;98591.41;2052133;28;20036;-51
2022/06/25 04:50:43;;;;;;;;;;;;;;;28.24;49.25;98585.94;2056108;28;20024;-54
2022/06/25 04:51:43;;;;;;;;;;;;;;;28.24;49.54;98585.94;2050670;28;19937;-55
2022/06/25 04:52:45;;;;;;;;;;;;;;;28.24;49.39;98582.41;2051398;28;19937;-51
2022/06/25 04:53:57;;;;;;;;;;;;;;;28.23;49.21;98584.31;2051834;28;19933;-54
2022/06/25 04:54:59;;;;;;;;;;;;;;;28.21;49.60;98591.94;2050524;28;19937;-51
2022/06/25 04:56:00;;;;;;;;;;;;;;;28.22;49.44;98593.59;2055356;28;19929;-54
2022/06/25 04:57:01;;;;;;;;;;;;;;;28.23;49.54;98600.69;2051904;28;19941;-54
2022/06/25 04:58:03;;;;;;;;;;;;;;;28.22;49.26;98596.31;2054448;28;19926;-52
2022/06/25 04:59:05;;;;;;;;;;;;;;;28.23;49.36;98600.69;2054236;28;19933;-55
2022/06/25 05:00:06;;;;;;;;;;;;;;;28.22;49.53;98604.50;2052930;28;19934;-55
2022/06/25 05:01:08;;;;;;;;;;;;;;;28.22;49.39;98606.38;2048593;28;20318;-51
2022/06/25 05:02:08;;;;;;;;;;;;;;;28.21;49.50;98605.56;2050132;28;19930;-52
2022/06/25 05:03:10;;;;;;;;;;;;;;;28.21;49.63;98608.31;2051148;28;21731;-53
2022/06/25 05:04:11;;;;;;;;;;;;;;;28.20;49.40;98603.94;2054440;28;20308;-55
2022/06/25 05:05:12;;;;;;;;;;;;;;;28.22;49.30;98600.94;2053598;28;19940;-55
2022/06/25 05:06:13;;;;;;;;;;;;;;;28.21;49.36;98602.84;2051958;28;19930;-55
2022/06/25 05:07:14;;;;;;;;;;;;;;;28.21;49.29;98600.13;2053339;28;19937;-53
2022/06/25 05:08:15;;;;;;;;;;;;;;;28.22;49.62;98611.84;2054115;28;19930;-52
2022/06/25 05:09:17;;;;;;;;;;;;;;;28.21;49.49;98605.56;2050331;28;20398;-51
2022/06/25 05:10:17;;;;;;;;;;;;;;;28.22;49.12;98592.75;2048736;28;19934;-52
2022/06/25 05:11:19;;;;;;;;;;;;;;;28.21;49.60;98605.56;2052753;28;19934;-54
2022/06/25 05:13:37;;;;;;;;;;;;;;;28.19;49.34;98602.28;2054614;28;20404;-52
2022/06/25 05:14:38;;;;;;;;;;;;;;;28.21;49.20;98602.03;2055607;28;20025;-55
2022/06/25 05:15:40;;;;;;;;;;;;;;;28.20;49.29;98598.50;2053847;28;19941;-56
2022/06/25 05:16:42;;;;;;;;;;;;;;;28.21;49.31;98602.84;2051093;28;19933;-54
2022/06/25 05:17:42;;;;;;;;;;;;;;;28.21;49.45;98597.41;2050801;28;20092;-53
2022/06/25 05:18:44;;;;;;;;;;;;;;;28.21;49.42;98600.13;2043125;28;20061;-52
2022/06/25 05:19:45;;;;;;;;;;;;;;;28.20;49.20;98597.69;2045935;28;19927;-55
2022/06/25 05:20:46;;;;;;;;;;;;;;;28.19;49.20;98606.94;2048234;28;19926;-53
2022/06/25 05:21:47;;;;;;;;;;;;;;;28.19;49.35;98610.47;2053561;28;19930;-51
2022/06/25 05:22:48;;;;;;;;;;;;;;;28.20;49.12;98606.69;2054122;28;20502;-52
2022/06/25 05:23:49;;;;;;;;;;;;;;;28.21;49.50;98602.03;2054110;28;20065;-52
2022/06/25 05:24:50;;;;;;;;;;;;;;;28.19;49.60;98599.56;2042567;28;19997;-53
2022/06/25 05:25:51;;;;;;;;;;;;;;;28.18;49.40;98603.38;2048926;28;19926;-52
2022/06/25 05:26:53;;;;;;;;;;;;;;;28.20;49.49;98605.84;2048883;28;20029;-52
2022/06/25 05:27:53;;;;;;;;;;;;;;;28.19;49.15;98602.28;2048391;28;19956;-51
2022/06/25 05:28:56;;;;;;;;;;;;;;;28.19;49.52;98609.66;2050404;28;19938;-51